ROMMA est une association bénévole à but non lucratif. Votre soutien est indispensable : ADHERER à ROMMA ou FAIRE un DON

Val-d'Arly - (73, Savoie)

Beaufortain (2050 m)   Longitude: 06° 35' 21" E   Latitude: 45° 46' 53" N Station romma n°118
 

Détail journalier du     <<     >>

Température Humidité Vent Dir Rafale Dir. rafale Ensol.
Heure (°C) (%) (km/h) (km/h) (min)
01:00 -1.3896---13---0
02:00 -1.6915---10---0
03:00 -1.6924---8---0
04:00 -1.5896---13---0
05:00 0.1766---18---0
06:00 0.2726---19---0
07:00 0.1768---23---0
08:00 -0.2768---16---0
09:00 0.2759---21---40
10:00 0.27510---24---60
11:00 1.36719---37---60
12:00 1.17315---34---40
13:00 1.36525---42---50
14:00 1.26427---40---0
15:00 1.26627---47---40
16:00 0.47323---39---30
17:00 0.36832---48---0
18:00 0.36930---50---0
19:00 0.66932---47---0
20:00 0.66732---42---0
21:00 0.66828---47---0
22:00 -0.88018---39---0
23:00 -0.77911---27---0
minuit -0.37623---39---0

Graphique du 21-11-2019

 

Serveur OMMA